»·PEaware :: N1128 KFAT-KLAX

N1128 :: KFAT-KLAX

FLIGHT INFORMATION

Flight Status: Arrived
Operator: Privately registered:
United States
More flights under this callsign
Pilot: Siddique N. (20419)
Aircraft: Unknown
(BT7)
More flights by this aircraft type
Origin: KFAT Fresno Yosemite Intl
United States
Destination: KLAX Los Angeles Intl
United States
More flights between these airports :: More routes between these airports
Route: +BULL3 NTELL FRAME PONDD TAFTO MUPTT IRNMN2
File this flight plan on PilotEdge
Remarks:
Altitude:
(Current/Filed)
25,000ft
Speed:
(Current/Filed)
300kts
Departed: 30-Sep-20 09:54 AM
Arrived: 30-Sep-20 10:43 AM
Distance/Time
Traveled:
181nm/0:49
Distance/Time
To Go:
Arrived

Flight Plot

Page will automatically refresh every two minutes.

Flight plan parsing failed; only flown route is shown


Map Options




Map Legend


Flown Route
Filed Route
Departure Airport
Arrival Airport
Navaid (VOR, NDB)
Fix

Horizontal Profiles

Position Reports

Time Latitude Longitude Heading Altitude Ground
Speed
30-Sep-20 09:19 36.776463 -119.726328 306 334ft 0kts
30-Sep-20 09:19 36.776463 -119.726328 306 334ft 0kts
30-Sep-20 09:21 36.776463 -119.726328 306 334ft 0kts
30-Sep-20 09:22 36.776463 -119.726328 306 334ft 0kts
30-Sep-20 09:22 36.776463 -119.726328 306 334ft 0kts
30-Sep-20 09:24 36.776463 -119.726328 306 334ft 0kts
30-Sep-20 09:24 36.776463 -119.726328 306 334ft 0kts
30-Sep-20 09:25 36.776463 -119.726328 306 334ft 0kts
30-Sep-20 09:26 36.776463 -119.726328 306 334ft 0kts
30-Sep-20 09:27 36.776463 -119.726328 306 334ft 0kts
30-Sep-20 09:28 36.776463 -119.726328 306 334ft 0kts
30-Sep-20 09:29 36.776463 -119.726328 306 334ft 0kts
30-Sep-20 09:30 36.776463 -119.726328 306 334ft 0kts
30-Sep-20 09:31 36.776463 -119.726328 306 334ft 0kts
30-Sep-20 09:32 36.776463 -119.726328 306 334ft 0kts
30-Sep-20 09:33 36.776463 -119.726328 306 334ft 0kts
30-Sep-20 09:34 36.776463 -119.726328 306 334ft 0kts
30-Sep-20 09:35 36.776463 -119.726328 306 334ft 0kts
30-Sep-20 09:36 36.776463 -119.726328 306 334ft 0kts
30-Sep-20 09:37 36.776463 -119.726328 306 334ft 0kts
30-Sep-20 09:38 36.776463 -119.726328 306 334ft 0kts
30-Sep-20 09:39 36.776463 -119.726328 306 334ft 0kts
30-Sep-20 09:40 36.776463 -119.726328 306 334ft 0kts
30-Sep-20 09:41 36.776463 -119.726328 306 334ft 0kts
30-Sep-20 09:42 36.776463 -119.726328 306 334ft 0kts
30-Sep-20 09:43 36.776463 -119.726328 306 334ft 0kts
30-Sep-20 09:44 36.776463 -119.726328 306 334ft 0kts
30-Sep-20 09:45 36.776463 -119.726328 306 334ft 0kts
30-Sep-20 09:46 36.776384 -119.724949 124 334ft 13kts
30-Sep-20 09:47 36.774912 -119.720625 125 334ft 25kts
30-Sep-20 09:48 36.771580 -119.714844 124 334ft 20kts
30-Sep-20 09:49 36.769912 -119.711185 50 334ft 0kts
30-Sep-20 09:50 36.769912 -119.711185 50 334ft 0kts
30-Sep-20 09:51 36.769912 -119.711185 50 334ft 0kts
30-Sep-20 09:52 36.770683 -119.710777 310 334ft 6kts
30-Sep-20 09:53 36.779837 -119.726935 305 346ft 193kts
30-Sep-20 09:54 36.808133 -119.780050 301 1926ft 213kts
30-Sep-20 09:55 36.843790 -119.844150 304 3990ft 208kts
30-Sep-20 09:56 36.849679 -119.906671 202 5526ft 214kts
30-Sep-20 09:57 36.794217 -119.874421 142 7300ft 237kts
30-Sep-20 09:58 36.745570 -119.822756 128 10279ft 207kts
30-Sep-20 09:59 36.704246 -119.753150 130 12949ft 265kts
30-Sep-20 10:00 36.643386 -119.691825 157 15908ft 292kts
30-Sep-20 10:01 36.572599 -119.648899 159 18908ft 277kts
30-Sep-20 10:02 36.499315 -119.606806 160 21996ft 308kts
30-Sep-20 10:03 36.413181 -119.558898 160 22880ft 389kts
30-Sep-20 10:04 36.303068 -119.502680 162 22858ft 435kts
30-Sep-20 10:05 36.191926 -119.449120 162 22861ft 426kts
30-Sep-20 10:06 36.081330 -119.395528 162 22861ft 426kts
30-Sep-20 10:07 35.971450 -119.338179 161 22855ft 427kts
30-Sep-20 10:08 35.862233 -119.279547 165 22856ft 424kts
30-Sep-20 10:09 35.746388 -119.268375 187 22859ft 411kts
30-Sep-20 10:10 35.631494 -119.275972 188 22863ft 424kts
30-Sep-20 10:11 35.515517 -119.285734 188 22856ft 410kts
30-Sep-20 10:12 35.400014 -119.297060 190 22852ft 408kts
30-Sep-20 10:13 35.290530 -119.309162 187 22857ft 387kts
30-Sep-20 10:14 35.182629 -119.314300 186 22856ft 389kts
30-Sep-20 10:15 35.073694 -119.319334 186 22851ft 386kts
30-Sep-20 10:16 34.968812 -119.320426 184 22854ft 375kts
30-Sep-20 10:17 34.863679 -119.319910 184 22858ft 377kts
30-Sep-20 10:18 34.760376 -119.317885 177 22937ft 366kts
30-Sep-20 10:19 34.672249 -119.247281 147 22391ft 383kts
30-Sep-20 10:20 34.584959 -119.171440 151 20878ft 383kts
30-Sep-20 10:21 34.498775 -119.100989 151 19122ft 362kts
30-Sep-20 10:22 34.420954 -119.033351 147 17090ft 330kts
30-Sep-20 10:23 34.349406 -118.970046 147 15051ft 305kts
30-Sep-20 10:24 34.282376 -118.910476 145 13032ft 296kts
30-Sep-20 10:25 34.217469 -118.851839 143 11942ft 276kts
30-Sep-20 10:26 34.156931 -118.794202 143 11940ft 274kts
30-Sep-20 10:27 34.095632 -118.736766 143 10194ft 270kts
30-Sep-20 10:28 34.041169 -118.680288 137 8989ft 232kts
30-Sep-20 10:29 34.023928 -118.609951 96 8095ft 231kts
30-Sep-20 10:30 34.020771 -118.535044 92 7944ft 224kts
30-Sep-20 10:31 34.018723 -118.463974 95 6978ft 190kts
30-Sep-20 10:32 34.021869 -118.399351 82 6184ft 187kts
30-Sep-20 10:33 34.029956 -118.334602 83 5912ft 198kts
30-Sep-20 10:34 34.037866 -118.273192 83 4845ft 182kts
30-Sep-20 10:35 34.044831 -118.209122 85 2998ft 212kts
30-Sep-20 10:36 34.037101 -118.146470 161 2950ft 187kts
30-Sep-20 10:37 33.999877 -118.176559 231 2950ft 193kts
30-Sep-20 10:38 33.969990 -118.223650 258 2911ft 167kts
30-Sep-20 10:39 33.965262 -118.279440 263 2169ft 202kts
30-Sep-20 10:40 33.958809 -118.337234 262 1191ft 159kts
30-Sep-20 10:41 33.953449 -118.389759 261 396ft 154kts
30-Sep-20 10:42 33.949790 -118.418543 233 110ft 1kts
30-Sep-20 10:43 33.949728 -118.418641 233 110ft 9kts
30-Sep-20 10:44 33.946581 -118.423505 211 110ft 12kts

Navigation Log

Ident Type
Flight plan parsing failed, navigation log unavailable